Aérodrome :
LOGIN :

S'inscrire | Disclaimer

   EN    FR    IT 

 










Légende :    VFR   VFR Marginal   IFR   IFR Intensif   IFR Très Intensif
Visi : 
Plafond : 
>= 8 km
>= 3000ft
5 à 8 km
1000 à 3000 ft
1500m à 5 km
500 à 1000 ft
800 à 1500m
200 à 500 ft
< 800m
< 200 ft
Symboles :   Orages  Brouillard  Fortes neiges  Fortes précipitations  Vent > 20 kt
SIGMETs :   Divers  Orages  Givrage  Turbulence  Onde Orograph.  Cendres Volcan.






- Altitude de l'aérodrome : 279 ft
- Code IATA : TGR


DAUK - Touggourt Sidi Mahdi

DERNIER METAR :
  • 150700Z 19010KT 4000 HZ SCT040 SCT100 16/04 Q1007

METARs EXPIRÉS :
  • 150636Z 18012KT 4000 HZ SCT040 SCT100 16/05 Q1006
  • 150600Z 18013KT 6000 SCT040 SCT100 16/08 Q1006
  • 150503Z 24009KT 6000 SCT040 SCT100 18/07 Q1006

TAF TAF DAUK
Valide du 15 à 06h jusqu'au 15 à 15h UTC


150500Z 1506/1515 24010KT 6000 SCT040 SCT100
PROB30
TEMPO 1506/1509 4000 HZ
PROB40
TEMPO 1509/1512 22015G25KT 3000 DRSA
BECMG 1512/1515 30008KT



MET'MAP, la Météo Aéronautique d'un coup d'oeil ! - Copyright ORBIFLY Décembre 2007 - Disclaimer

ORBIFLY MET'MAP TEAM :

Programmation & Développement : Alexandra Zaïnal
Conception & Développement : Baudouin d'Aumeries
Co-Programmation & Développement : Marc-Olivier Méhu
Soutien technique & logistique : Manuel Goepfert

Contact : metmap@orbifly.com




SOURCES & CREDITS :

   NOAA